sensor_id;sensor_type;location;lat;lon;timestamp;pressure;altitude;pressure_sealevel;temperature;humidity
57885;BME280;43703;51.060;-0.086;2023-02-02T00:02:07;101211.75;;;3.21;76.66
57885;BME280;43703;51.060;-0.086;2023-02-02T00:04:34;101212.76;;;3.67;76.25
57885;BME280;43703;51.060;-0.086;2023-02-02T00:06:58;101212.54;;;3.78;75.61
57885;BME280;43703;51.060;-0.086;2023-02-02T00:09:25;101218.31;;;3.53;76.82
57885;BME280;43703;51.060;-0.086;2023-02-02T00:11:48;101218.64;;;3.69;76.06
57885;BME280;43703;51.060;-0.086;2023-02-02T00:14:13;101222.32;;;3.76;74.12
57885;BME280;43703;51.060;-0.086;2023-02-02T00:16:40;101216.35;;;3.72;74.04
57885;BME280;43703;51.060;-0.086;2023-02-02T00:19:06;101222.35;;;3.66;75.74
57885;BME280;43703;51.060;-0.086;2023-02-02T00:21:29;101224.93;;;4.66;73.64
57885;BME280;43703;51.060;-0.086;2023-02-02T00:23:54;101222.37;;;3.87;75.28
57885;BME280;43703;51.060;-0.086;2023-02-02T00:26:20;101223.85;;;3.92;75.13
57885;BME280;43703;51.060;-0.086;2023-02-02T00:28:44;101226.68;;;3.95;75.44
57885;BME280;43703;51.060;-0.086;2023-02-02T00:31:10;101235.47;;;4.09;74.11
57885;BME280;43703;51.060;-0.086;2023-02-02T00:33:35;101235.51;;;3.84;76.23
57885;BME280;43703;51.060;-0.086;2023-02-02T00:36:00;101237.00;;;3.96;75.46
57885;BME280;43703;51.060;-0.086;2023-02-02T00:38:26;101236.94;;;3.67;74.99
57885;BME280;43703;51.060;-0.086;2023-02-02T00:40:50;101235.61;;;4.04;73.93
57885;BME280;43703;51.060;-0.086;2023-02-02T00:43:17;101236.31;;;3.49;75.46
57885;BME280;43703;51.060;-0.086;2023-02-02T00:45:40;101232.45;;;3.45;75.64
57885;BME280;43703;51.060;-0.086;2023-02-02T00:48:05;101233.88;;;3.83;74.52
57885;BME280;43703;51.060;-0.086;2023-02-02T00:50:31;101230.02;;;3.87;74.97
57885;BME280;43703;51.060;-0.086;2023-02-02T00:52:56;101229.86;;;3.93;75.08
57885;BME280;43703;51.060;-0.086;2023-02-02T00:55:21;101232.64;;;3.89;74.51
57885;BME280;43703;51.060;-0.086;2023-02-02T00:57:46;101229.27;;;3.81;75.88
57885;BME280;43703;51.060;-0.086;2023-02-02T01:00:14;101227.64;;;3.21;75.77
57885;BME280;43703;51.060;-0.086;2023-02-02T01:02:36;101232.34;;;4.63;72.57
57885;BME280;43703;51.060;-0.086;2023-02-02T01:05:02;101220.14;;;3.62;75.28
57885;BME280;43703;51.060;-0.086;2023-02-02T01:07:27;101224.01;;;4.72;71.98
57885;BME280;43703;51.060;-0.086;2023-02-02T01:09:52;101220.35;;;3.60;73.91
57885;BME280;43703;51.060;-0.086;2023-02-02T01:12:17;101221.90;;;3.48;74.53
57885;BME280;43703;51.060;-0.086;2023-02-02T01:14:42;101224.14;;;3.49;75.08
57885;BME280;43703;51.060;-0.086;2023-02-02T01:17:08;101225.84;;;3.85;73.94
57885;BME280;43703;51.060;-0.086;2023-02-02T01:19:34;101233.23;;;3.97;74.21
57885;BME280;43703;51.060;-0.086;2023-02-02T01:21:59;101232.86;;;4.25;73.41
57885;BME280;43703;51.060;-0.086;2023-02-02T01:24:24;101229.15;;;3.48;74.32
57885;BME280;43703;51.060;-0.086;2023-02-02T01:26:49;101226.53;;;3.53;74.67
57885;BME280;43703;51.060;-0.086;2023-02-02T01:29:14;101220.78;;;3.29;74.94
57885;BME280;43703;51.060;-0.086;2023-02-02T01:31:40;101218.34;;;3.22;75.23
57885;BME280;43703;51.060;-0.086;2023-02-02T01:34:05;101222.85;;;3.53;76.77
57885;BME280;43703;51.060;-0.086;2023-02-02T01:36:30;101223.62;;;3.55;74.83
57885;BME280;43703;51.060;-0.086;2023-02-02T01:38:55;101217.60;;;3.92;74.03
57885;BME280;43703;51.060;-0.086;2023-02-02T01:41:22;101219.51;;;3.75;74.64
57885;BME280;43703;51.060;-0.086;2023-02-02T01:43:51;101217.21;;;4.08;74.83
57885;BME280;43703;51.060;-0.086;2023-02-02T01:46:12;101216.81;;;3.43;75.95
57885;BME280;43703;51.060;-0.086;2023-02-02T01:48:37;101223.12;;;3.89;74.04
57885;BME280;43703;51.060;-0.086;2023-02-02T01:51:05;101225.00;;;3.18;76.33
57885;BME280;43703;51.060;-0.086;2023-02-02T01:53:27;101232.57;;;3.82;74.16
57885;BME280;43703;51.060;-0.086;2023-02-02T01:55:53;101229.18;;;3.70;75.68
57885;BME280;43703;51.060;-0.086;2023-02-02T01:58:22;101228.95;;;3.34;75.70
57885;BME280;43703;51.060;-0.086;2023-02-02T02:00:44;101230.70;;;3.50;76.04
57885;BME280;43703;51.060;-0.086;2023-02-02T02:03:13;101236.14;;;3.87;74.37
57885;BME280;43703;51.060;-0.086;2023-02-02T02:05:36;101237.32;;;4.15;73.55
57885;BME280;43703;51.060;-0.086;2023-02-02T02:08:07;101233.73;;;3.79;73.44
57885;BME280;43703;51.060;-0.086;2023-02-02T02:10:25;101230.13;;;4.83;70.62
57885;BME280;43703;51.060;-0.086;2023-02-02T02:12:51;101230.66;;;4.56;71.79
57885;BME280;43703;51.060;-0.086;2023-02-02T02:15:16;101224.55;;;3.45;74.50
57885;BME280;43703;51.060;-0.086;2023-02-02T02:17:51;101230.27;;;4.10;73.01
57885;BME280;43703;51.060;-0.086;2023-02-02T02:22:42;101228.94;;;3.77;73.72
57885;BME280;43703;51.060;-0.086;2023-02-02T02:29:59;101233.61;;;3.37;74.42
57885;BME280;43703;51.060;-0.086;2023-02-02T02:32:24;101231.17;;;4.12;72.13
57885;BME280;43703;51.060;-0.086;2023-02-02T02:34:49;101231.42;;;4.14;72.74
57885;BME280;43703;51.060;-0.086;2023-02-02T02:37:07;101231.12;;;4.33;71.84
57885;BME280;43703;51.060;-0.086;2023-02-02T02:39:31;101224.52;;;4.78;69.83
57885;BME280;43703;51.060;-0.086;2023-02-02T02:41:56;101226.02;;;3.80;72.82
57885;BME280;43703;51.060;-0.086;2023-02-02T02:44:20;101222.05;;;3.83;74.44
57885;BME280;43703;51.060;-0.086;2023-02-02T02:46:44;101213.90;;;3.47;73.94
57885;BME280;43703;51.060;-0.086;2023-02-02T02:49:10;101220.32;;;4.74;71.42
57885;BME280;43703;51.060;-0.086;2023-02-02T02:51:41;101221.83;;;3.97;72.86
57885;BME280;43703;51.060;-0.086;2023-02-02T02:53:59;101228.38;;;3.28;74.85
57885;BME280;43703;51.060;-0.086;2023-02-02T02:56:31;101230.28;;;4.17;74.33
57885;BME280;43703;51.060;-0.086;2023-02-02T02:58:57;101235.47;;;3.69;73.20
57885;BME280;43703;51.060;-0.086;2023-02-02T03:01:20;101235.04;;;3.30;74.39
57885;BME280;43703;51.060;-0.086;2023-02-02T03:06:09;101236.47;;;4.38;72.00
57885;BME280;43703;51.060;-0.086;2023-02-02T03:08:31;101239.44;;;4.66;71.70
57885;BME280;43703;51.060;-0.086;2023-02-02T03:10:57;101245.50;;;4.44;72.58
57885;BME280;43703;51.060;-0.086;2023-02-02T03:13:21;101245.98;;;4.38;70.62
57885;BME280;43703;51.060;-0.086;2023-02-02T03:15:46;101240.71;;;4.20;71.03
57885;BME280;43703;51.060;-0.086;2023-02-02T03:18:11;101246.42;;;4.21;71.76
57885;BME280;43703;51.060;-0.086;2023-02-02T03:20:36;101247.30;;;5.12;70.29
57885;BME280;43703;51.060;-0.086;2023-02-02T03:23:01;101248.54;;;4.92;68.99
57885;BME280;43703;51.060;-0.086;2023-02-02T03:25:26;101247.89;;;4.65;70.99
57885;BME280;43703;51.060;-0.086;2023-02-02T03:27:51;101242.89;;;3.91;72.37
57885;BME280;43703;51.060;-0.086;2023-02-02T03:30:16;101244.60;;;4.73;71.03
57885;BME280;43703;51.060;-0.086;2023-02-02T03:32:41;101244.55;;;5.11;69.73
57885;BME280;43703;51.060;-0.086;2023-02-02T03:35:07;101249.19;;;5.35;68.19
57885;BME280;43703;51.060;-0.086;2023-02-02T03:37:31;101248.71;;;4.85;68.41
57885;BME280;43703;51.060;-0.086;2023-02-02T03:39:56;101254.55;;;5.33;66.89
57885;BME280;43703;51.060;-0.086;2023-02-02T03:42:21;101249.95;;;4.42;69.81
57885;BME280;43703;51.060;-0.086;2023-02-02T03:44:46;101249.02;;;4.69;71.08
57885;BME280;43703;51.060;-0.086;2023-02-02T03:47:11;101247.07;;;4.39;71.54
57885;BME280;43703;51.060;-0.086;2023-02-02T03:49:36;101240.30;;;4.63;69.67
57885;BME280;43703;51.060;-0.086;2023-02-02T03:52:01;101233.52;;;4.07;71.63
57885;BME280;43703;51.060;-0.086;2023-02-02T03:54:26;101228.14;;;3.71;72.35
57885;BME280;43703;51.060;-0.086;2023-02-02T03:56:51;101225.84;;;3.07;72.79
57885;BME280;43703;51.060;-0.086;2023-02-02T03:59:16;101225.42;;;2.77;74.77
57885;BME280;43703;51.060;-0.086;2023-02-02T04:01:41;101223.56;;;2.79;76.19
57885;BME280;43703;51.060;-0.086;2023-02-02T04:04:07;101218.51;;;2.90;76.10
57885;BME280;43703;51.060;-0.086;2023-02-02T04:06:33;101224.29;;;2.92;76.17
57885;BME280;43703;51.060;-0.086;2023-02-02T04:08:58;101228.33;;;2.40;76.88
57885;BME280;43703;51.060;-0.086;2023-02-02T04:11:23;101236.46;;;2.57;77.09
57885;BME280;43703;51.060;-0.086;2023-02-02T04:13:48;101238.59;;;2.45;77.01
57885;BME280;43703;51.060;-0.086;2023-02-02T04:16:13;101230.00;;;2.30;78.65
57885;BME280;43703;51.060;-0.086;2023-02-02T04:18:38;101231.82;;;2.30;80.15
57885;BME280;43703;51.060;-0.086;2023-02-02T04:21:05;101231.89;;;1.96;79.81
57885;BME280;43703;51.060;-0.086;2023-02-02T04:23:29;101224.32;;;2.19;80.11
57885;BME280;43703;51.060;-0.086;2023-02-02T04:25:53;101226.55;;;1.99;81.05
57885;BME280;43703;51.060;-0.086;2023-02-02T04:28:19;101221.89;;;1.78;81.77
57885;BME280;43703;51.060;-0.086;2023-02-02T04:30:44;101229.09;;;1.87;81.84
57885;BME280;43703;51.060;-0.086;2023-02-02T04:33:09;101232.33;;;2.00;82.98
57885;BME280;43703;51.060;-0.086;2023-02-02T04:35:34;101235.44;;;2.72;79.24
57885;BME280;43703;51.060;-0.086;2023-02-02T04:37:59;101241.25;;;1.77;81.90
57885;BME280;43703;51.060;-0.086;2023-02-02T04:40:25;101245.87;;;2.43;79.92
57885;BME280;43703;51.060;-0.086;2023-02-02T04:42:50;101247.83;;;2.40;80.20
57885;BME280;43703;51.060;-0.086;2023-02-02T04:45:16;101249.95;;;2.78;79.45
57885;BME280;43703;51.060;-0.086;2023-02-02T04:47:41;101255.53;;;2.20;82.30
57885;BME280;43703;51.060;-0.086;2023-02-02T04:50:07;101254.77;;;2.62;81.30
57885;BME280;43703;51.060;-0.086;2023-02-02T04:52:31;101256.21;;;2.13;81.04
57885;BME280;43703;51.060;-0.086;2023-02-02T04:54:57;101256.84;;;2.33;80.88
57885;BME280;43703;51.060;-0.086;2023-02-02T04:57:23;101259.06;;;2.50;80.10
57885;BME280;43703;51.060;-0.086;2023-02-02T04:59:48;101257.18;;;2.41;78.58
57885;BME280;43703;51.060;-0.086;2023-02-02T05:02:13;101264.60;;;2.93;78.66
57885;BME280;43703;51.060;-0.086;2023-02-02T05:04:39;101266.10;;;2.82;77.11
57885;BME280;43703;51.060;-0.086;2023-02-02T05:07:04;101267.44;;;2.54;78.18
57885;BME280;43703;51.060;-0.086;2023-02-02T05:09:29;101265.04;;;2.56;79.36
57885;BME280;43703;51.060;-0.086;2023-02-02T05:11:54;101264.78;;;2.63;78.33
57885;BME280;43703;51.060;-0.086;2023-02-02T05:14:19;101265.04;;;2.33;78.84
57885;BME280;43703;51.060;-0.086;2023-02-02T05:16:45;101259.77;;;2.31;78.64
57885;BME280;43703;51.060;-0.086;2023-02-02T05:19:11;101260.73;;;2.29;78.37
57885;BME280;43703;51.060;-0.086;2023-02-02T05:21:34;101258.80;;;2.19;78.45
57885;BME280;43703;51.060;-0.086;2023-02-02T05:24:00;101260.21;;;2.99;76.91
57885;BME280;43703;51.060;-0.086;2023-02-02T05:26:25;101261.74;;;2.17;77.44
57885;BME280;43703;51.060;-0.086;2023-02-02T05:28:51;101261.64;;;2.59;77.14
57885;BME280;43703;51.060;-0.086;2023-02-02T05:31:15;101259.36;;;2.30;78.86
57885;BME280;43703;51.060;-0.086;2023-02-02T05:33:41;101257.33;;;2.06;78.46
57885;BME280;43703;51.060;-0.086;2023-02-02T05:36:06;101254.46;;;2.00;78.86
57885;BME280;43703;51.060;-0.086;2023-02-02T05:38:31;101252.01;;;2.19;77.59
57885;BME280;43703;51.060;-0.086;2023-02-02T05:40:55;101252.80;;;2.07;78.17
57885;BME280;43703;51.060;-0.086;2023-02-02T05:43:24;101250.13;;;2.03;78.63
57885;BME280;43703;51.060;-0.086;2023-02-02T05:45:46;101250.30;;;1.74;79.12
57885;BME280;43703;51.060;-0.086;2023-02-02T05:48:12;101250.81;;;1.87;80.17
57885;BME280;43703;51.060;-0.086;2023-02-02T05:50:36;101249.08;;;2.25;79.10
57885;BME280;43703;51.060;-0.086;2023-02-02T05:53:03;101251.93;;;2.06;78.68
57885;BME280;43703;51.060;-0.086;2023-02-02T05:55:27;101256.15;;;1.69;80.59
57885;BME280;43703;51.060;-0.086;2023-02-02T05:57:52;101255.30;;;1.74;81.17
57885;BME280;43703;51.060;-0.086;2023-02-02T06:00:18;101251.19;;;2.29;79.42
57885;BME280;43703;51.060;-0.086;2023-02-02T06:02:42;101248.46;;;1.93;79.26
57885;BME280;43703;51.060;-0.086;2023-02-02T06:05:08;101246.72;;;2.08;78.35
57885;BME280;43703;51.060;-0.086;2023-02-02T06:07:32;101250.20;;;2.48;77.44
57885;BME280;43703;51.060;-0.086;2023-02-02T06:09:58;101251.63;;;1.91;78.05
57885;BME280;43703;51.060;-0.086;2023-02-02T06:12:23;101252.54;;;1.77;77.47
57885;BME280;43703;51.060;-0.086;2023-02-02T06:14:48;101251.23;;;2.30;77.37
57885;BME280;43703;51.060;-0.086;2023-02-02T06:17:13;101253.36;;;1.95;77.29
57885;BME280;43703;51.060;-0.086;2023-02-02T06:19:38;101253.69;;;2.17;79.10
57885;BME280;43703;51.060;-0.086;2023-02-02T06:22:03;101255.03;;;2.14;78.40
57885;BME280;43703;51.060;-0.086;2023-02-02T06:24:29;101257.33;;;1.79;80.05
57885;BME280;43703;51.060;-0.086;2023-02-02T06:26:54;101258.49;;;1.83;78.74
57885;BME280;43703;51.060;-0.086;2023-02-02T06:29:19;101253.94;;;2.86;76.45
57885;BME280;43703;51.060;-0.086;2023-02-02T06:31:44;101252.97;;;2.01;79.07
57885;BME280;43703;51.060;-0.086;2023-02-02T06:34:11;101254.23;;;2.34;78.58
57885;BME280;43703;51.060;-0.086;2023-02-02T06:36:35;101252.78;;;2.20;77.74
57885;BME280;43703;51.060;-0.086;2023-02-02T06:39:00;101259.42;;;1.43;78.09
57885;BME280;43703;51.060;-0.086;2023-02-02T06:41:26;101259.33;;;2.19;78.61
57885;BME280;43703;51.060;-0.086;2023-02-02T06:43:51;101262.23;;;2.33;77.19
57885;BME280;43703;51.060;-0.086;2023-02-02T06:46:16;101268.02;;;1.27;79.67
57885;BME280;43703;51.060;-0.086;2023-02-02T06:48:42;101271.43;;;1.40;80.54
57885;BME280;43703;51.060;-0.086;2023-02-02T06:51:07;101271.11;;;2.44;77.27
57885;BME280;43703;51.060;-0.086;2023-02-02T06:53:32;101267.25;;;2.49;76.09
57885;BME280;43703;51.060;-0.086;2023-02-02T06:55:58;101269.68;;;2.39;78.20
57885;BME280;43703;51.060;-0.086;2023-02-02T06:58:22;101272.04;;;2.14;78.29
57885;BME280;43703;51.060;-0.086;2023-02-02T07:00:47;101276.96;;;2.33;78.55
57885;BME280;43703;51.060;-0.086;2023-02-02T07:03:12;101273.89;;;2.27;77.40
57885;BME280;43703;51.060;-0.086;2023-02-02T07:05:37;101275.74;;;1.67;79.98
57885;BME280;43703;51.060;-0.086;2023-02-02T07:08:03;101278.19;;;2.43;79.35
57885;BME280;43703;51.060;-0.086;2023-02-02T07:10:28;101273.94;;;2.43;78.93
57885;BME280;43703;51.060;-0.086;2023-02-02T07:12:53;101271.07;;;2.28;77.87
57885;BME280;43703;51.060;-0.086;2023-02-02T07:15:18;101270.31;;;1.63;79.78
57885;BME280;43703;51.060;-0.086;2023-02-02T07:17:43;101272.47;;;2.04;78.82
57885;BME280;43703;51.060;-0.086;2023-02-02T07:20:09;101272.08;;;1.80;79.25
57885;BME280;43703;51.060;-0.086;2023-02-02T07:22:33;101272.41;;;2.04;78.01
57885;BME280;43703;51.060;-0.086;2023-02-02T07:24:58;101275.39;;;2.13;79.63
57885;BME280;43703;51.060;-0.086;2023-02-02T07:27:23;101270.05;;;2.08;77.71
57885;BME280;43703;51.060;-0.086;2023-02-02T07:29:48;101272.80;;;2.69;77.03
57885;BME280;43703;51.060;-0.086;2023-02-02T07:32:13;101276.25;;;1.64;79.73
57885;BME280;43703;51.060;-0.086;2023-02-02T07:34:38;101276.16;;;1.80;79.86
57885;BME280;43703;51.060;-0.086;2023-02-02T07:37:03;101279.93;;;1.80;80.98
57885;BME280;43703;51.060;-0.086;2023-02-02T07:39:28;101281.09;;;1.97;78.43
57885;BME280;43703;51.060;-0.086;2023-02-02T07:41:53;101289.33;;;2.84;77.26
57885;BME280;43703;51.060;-0.086;2023-02-02T07:44:18;101291.66;;;2.63;77.83
57885;BME280;43703;51.060;-0.086;2023-02-02T07:46:44;101296.95;;;2.69;77.45
57885;BME280;43703;51.060;-0.086;2023-02-02T07:49:12;101301.76;;;3.17;77.15
57885;BME280;43703;51.060;-0.086;2023-02-02T07:51:34;101309.03;;;2.90;76.92
57885;BME280;43703;51.060;-0.086;2023-02-02T07:53:59;101303.65;;;3.47;77.28
57885;BME280;43703;51.060;-0.086;2023-02-02T07:56:25;101307.09;;;2.87;77.75
57885;BME280;43703;51.060;-0.086;2023-02-02T07:58:51;101301.88;;;2.70;77.91
57885;BME280;43703;51.060;-0.086;2023-02-02T08:01:15;101302.05;;;3.25;77.28
57885;BME280;43703;51.060;-0.086;2023-02-02T08:03:39;101296.42;;;2.84;77.21
57885;BME280;43703;51.060;-0.086;2023-02-02T08:06:10;101300.80;;;2.82;77.76
57885;BME280;43703;51.060;-0.086;2023-02-02T08:08:29;101296.22;;;3.32;76.51
57885;BME280;43703;51.060;-0.086;2023-02-02T08:10:54;101297.97;;;3.73;75.70
57885;BME280;43703;51.060;-0.086;2023-02-02T08:13:20;101297.24;;;3.16;77.04
57885;BME280;43703;51.060;-0.086;2023-02-02T08:15:45;101300.02;;;3.46;76.90
57885;BME280;43703;51.060;-0.086;2023-02-02T08:18:10;101299.42;;;3.40;77.34
57885;BME280;43703;51.060;-0.086;2023-02-02T08:20:35;101296.16;;;3.98;76.72
57885;BME280;43703;51.060;-0.086;2023-02-02T08:23:00;101303.72;;;3.33;77.86
57885;BME280;43703;51.060;-0.086;2023-02-02T08:25:25;101302.30;;;3.74;76.13
57885;BME280;43703;51.060;-0.086;2023-02-02T08:27:52;101306.86;;;3.78;77.60
57885;BME280;43703;51.060;-0.086;2023-02-02T08:30:15;101306.09;;;4.00;76.92
57885;BME280;43703;51.060;-0.086;2023-02-02T08:32:40;101310.78;;;3.51;77.58
57885;BME280;43703;51.060;-0.086;2023-02-02T08:35:06;101311.13;;;3.81;77.35
57885;BME280;43703;51.060;-0.086;2023-02-02T08:37:30;101313.73;;;3.44;78.54
57885;BME280;43703;51.060;-0.086;2023-02-02T08:39:56;101315.67;;;2.59;81.08
57885;BME280;43703;51.060;-0.086;2023-02-02T08:42:21;101313.70;;;3.43;80.86
57885;BME280;43703;51.060;-0.086;2023-02-02T08:44:46;101321.92;;;3.99;78.48
57885;BME280;43703;51.060;-0.086;2023-02-02T08:47:11;101315.06;;;3.36;80.09
57885;BME280;43703;51.060;-0.086;2023-02-02T08:49:36;101324.96;;;4.01;79.03
57885;BME280;43703;51.060;-0.086;2023-02-02T08:52:01;101325.81;;;4.17;77.77
57885;BME280;43703;51.060;-0.086;2023-02-02T08:54:26;101328.97;;;3.78;80.84
57885;BME280;43703;51.060;-0.086;2023-02-02T08:56:51;101333.67;;;3.98;78.05
57885;BME280;43703;51.060;-0.086;2023-02-02T08:59:17;101341.01;;;3.69;80.02
57885;BME280;43703;51.060;-0.086;2023-02-02T09:01:42;101340.56;;;3.66;80.48
57885;BME280;43703;51.060;-0.086;2023-02-02T09:04:12;101340.41;;;4.30;78.46
57885;BME280;43703;51.060;-0.086;2023-02-02T09:06:34;101347.72;;;4.01;79.78
57885;BME280;43703;51.060;-0.086;2023-02-02T09:08:58;101352.84;;;4.31;78.45
57885;BME280;43703;51.060;-0.086;2023-02-02T09:11:23;101366.21;;;5.02;76.81
57885;BME280;43703;51.060;-0.086;2023-02-02T09:13:53;101382.45;;;5.00;75.85
57885;BME280;43703;51.060;-0.086;2023-02-02T09:16:16;101382.85;;;4.86;76.25
57885;BME280;43703;51.060;-0.086;2023-02-02T09:18:39;101387.92;;;4.59;77.33
57885;BME280;43703;51.060;-0.086;2023-02-02T09:21:05;101389.03;;;4.48;77.13
57885;BME280;43703;51.060;-0.086;2023-02-02T09:23:30;101385.00;;;5.33;75.87
57885;BME280;43703;51.060;-0.086;2023-02-02T09:25:54;101389.43;;;4.76;77.00
57885;BME280;43703;51.060;-0.086;2023-02-02T09:28:19;101390.99;;;4.45;78.07
57885;BME280;43703;51.060;-0.086;2023-02-02T09:30:45;101391.76;;;4.84;77.07
57885;BME280;43703;51.060;-0.086;2023-02-02T09:33:10;101394.61;;;4.28;79.94
57885;BME280;43703;51.060;-0.086;2023-02-02T09:35:35;101396.69;;;4.68;78.32
57885;BME280;43703;51.060;-0.086;2023-02-02T09:38:00;101393.67;;;4.85;78.54
57885;BME280;43703;51.060;-0.086;2023-02-02T09:40:25;101391.65;;;4.79;78.22
57885;BME280;43703;51.060;-0.086;2023-02-02T09:42:57;101390.55;;;5.22;77.32
57885;BME280;43703;51.060;-0.086;2023-02-02T09:45:19;101394.83;;;5.14;75.75
57885;BME280;43703;51.060;-0.086;2023-02-02T09:47:51;101391.50;;;5.48;76.18
57885;BME280;43703;51.060;-0.086;2023-02-02T09:50:14;101391.93;;;6.27;73.49
57885;BME280;43703;51.060;-0.086;2023-02-02T09:52:35;101394.54;;;5.88;74.41
57885;BME280;43703;51.060;-0.086;2023-02-02T09:54:59;101393.43;;;5.84;73.29
57885;BME280;43703;51.060;-0.086;2023-02-02T09:57:26;101398.53;;;5.70;74.78
57885;BME280;43703;51.060;-0.086;2023-02-02T09:59:49;101392.04;;;6.68;71.88
57885;BME280;43703;51.060;-0.086;2023-02-02T10:02:16;101387.59;;;7.64;70.79
57885;BME280;43703;51.060;-0.086;2023-02-02T10:04:39;101391.45;;;6.64;73.46
57885;BME280;43703;51.060;-0.086;2023-02-02T10:07:06;101396.37;;;6.35;73.12
57885;BME280;43703;51.060;-0.086;2023-02-02T10:09:33;101390.38;;;6.09;73.97
57885;BME280;43703;51.060;-0.086;2023-02-02T10:11:57;101398.16;;;7.15;72.30
57885;BME280;43703;51.060;-0.086;2023-02-02T10:14:20;101393.99;;;7.31;70.39
57885;BME280;43703;51.060;-0.086;2023-02-02T10:16:44;101401.75;;;7.20;71.79
57885;BME280;43703;51.060;-0.086;2023-02-02T10:19:10;101399.39;;;6.91;72.03
57885;BME280;43703;51.060;-0.086;2023-02-02T10:21:39;101397.26;;;7.89;67.28
57885;BME280;43703;51.060;-0.086;2023-02-02T10:24:02;101408.53;;;6.93;69.99
57885;BME280;43703;51.060;-0.086;2023-02-02T10:26:34;101402.66;;;7.02;69.59
57885;BME280;43703;51.060;-0.086;2023-02-02T10:29:04;101401.78;;;7.12;67.48
57885;BME280;43703;51.060;-0.086;2023-02-02T10:31:29;101404.12;;;8.03;65.04
57885;BME280;43703;51.060;-0.086;2023-02-02T10:33:50;101409.02;;;6.87;68.96
57885;BME280;43703;51.060;-0.086;2023-02-02T10:36:17;101412.87;;;6.84;70.29
57885;BME280;43703;51.060;-0.086;2023-02-02T10:38:40;101408.91;;;6.64;71.00
57885;BME280;43703;51.060;-0.086;2023-02-02T10:41:08;101413.86;;;7.79;67.83
57885;BME280;43703;51.060;-0.086;2023-02-02T10:45:53;101423.24;;;7.29;69.28
57885;BME280;43703;51.060;-0.086;2023-02-02T10:48:20;101427.16;;;7.39;69.89
57885;BME280;43703;51.060;-0.086;2023-02-02T10:50:46;101431.02;;;7.90;69.31
57885;BME280;43703;51.060;-0.086;2023-02-02T10:53:12;101436.59;;;7.04;69.42
57885;BME280;43703;51.060;-0.086;2023-02-02T10:55:38;101437.81;;;6.71;71.19
57885;BME280;43703;51.060;-0.086;2023-02-02T10:58:07;101439.60;;;6.59;71.57
57885;BME280;43703;51.060;-0.086;2023-02-02T11:00:32;101437.15;;;6.48;72.89
57885;BME280;43703;51.060;-0.086;2023-02-02T11:02:53;101434.53;;;7.14;70.55
57885;BME280;43703;51.060;-0.086;2023-02-02T11:05:20;101431.07;;;8.05;71.00
57885;BME280;43703;51.060;-0.086;2023-02-02T11:07:42;101428.32;;;8.53;68.29
57885;BME280;43703;51.060;-0.086;2023-02-02T11:10:08;101429.71;;;8.03;67.60
57885;BME280;43703;51.060;-0.086;2023-02-02T11:12:35;101418.62;;;7.41;70.02
57885;BME280;43703;51.060;-0.086;2023-02-02T11:15:01;101417.60;;;7.30;70.08
57885;BME280;43703;51.060;-0.086;2023-02-02T11:17:25;101414.64;;;7.03;71.02
57885;BME280;43703;51.060;-0.086;2023-02-02T11:19:51;101410.54;;;6.95;71.72
57885;BME280;43703;51.060;-0.086;2023-02-02T11:22:24;101412.00;;;6.92;71.08
57885;BME280;43703;51.060;-0.086;2023-02-02T11:24:46;101407.71;;;6.38;73.24
57885;BME280;43703;51.060;-0.086;2023-02-02T11:27:12;101408.67;;;7.10;70.30
57885;BME280;43703;51.060;-0.086;2023-02-02T11:29:40;101411.26;;;7.00;70.89
57885;BME280;43703;51.060;-0.086;2023-02-02T11:34:26;101410.68;;;7.20;71.08
57885;BME280;43703;51.060;-0.086;2023-02-02T11:36:59;101411.82;;;6.79;73.17
57885;BME280;43703;51.060;-0.086;2023-02-02T11:39:18;101408.31;;;6.45;74.06
57885;BME280;43703;51.060;-0.086;2023-02-02T11:41:40;101407.99;;;6.62;72.61
57885;BME280;43703;51.060;-0.086;2023-02-02T11:44:09;101400.68;;;7.35;72.28
57885;BME280;43703;51.060;-0.086;2023-02-02T11:46:31;101389.84;;;7.43;70.33
57885;BME280;43703;51.060;-0.086;2023-02-02T11:49:00;101388.68;;;8.15;68.80
57885;BME280;43703;51.060;-0.086;2023-02-02T11:51:23;101388.26;;;8.48;67.79
57885;BME280;43703;51.060;-0.086;2023-02-02T11:53:49;101391.53;;;8.82;66.53
57885;BME280;43703;51.060;-0.086;2023-02-02T11:56:18;101392.31;;;7.75;68.43
57885;BME280;43703;51.060;-0.086;2023-02-02T11:58:43;101390.65;;;7.79;68.55
57885;BME280;43703;51.060;-0.086;2023-02-02T12:01:04;101387.68;;;7.35;68.77
57885;BME280;43703;51.060;-0.086;2023-02-02T12:03:33;101382.73;;;7.47;68.51
57885;BME280;43703;51.060;-0.086;2023-02-02T12:05:55;101385.26;;;7.85;67.86
57885;BME280;43703;51.060;-0.086;2023-02-02T12:08:20;101382.35;;;7.47;69.25
57885;BME280;43703;51.060;-0.086;2023-02-02T12:10:52;101380.67;;;7.94;66.36
57885;BME280;43703;51.060;-0.086;2023-02-02T12:13:18;101384.39;;;6.91;70.45
57885;BME280;43703;51.060;-0.086;2023-02-02T12:15:46;101388.16;;;6.81;71.10
57885;BME280;43703;51.060;-0.086;2023-02-02T12:18:15;101377.25;;;7.97;67.55
57885;BME280;43703;51.060;-0.086;2023-02-02T12:20:34;101375.94;;;7.07;70.37
57885;BME280;43703;51.060;-0.086;2023-02-02T12:23:04;101368.59;;;7.56;69.10
57885;BME280;43703;51.060;-0.086;2023-02-02T12:27:50;101364.17;;;7.70;68.91
57885;BME280;43703;51.060;-0.086;2023-02-02T12:30:21;101358.32;;;7.47;70.36
57885;BME280;43703;51.060;-0.086;2023-02-02T12:32:44;101357.50;;;8.14;68.36
57885;BME280;43703;51.060;-0.086;2023-02-02T12:37:37;101356.09;;;7.71;69.24
57885;BME280;43703;51.060;-0.086;2023-02-02T12:40:00;101363.44;;;6.99;71.13
57885;BME280;43703;51.060;-0.086;2023-02-02T12:42:27;101359.22;;;7.72;68.29
57885;BME280;43703;51.060;-0.086;2023-02-02T12:44:56;101353.91;;;7.82;68.09
57885;BME280;43703;51.060;-0.086;2023-02-02T12:47:15;101352.42;;;7.58;70.17
57885;BME280;43703;51.060;-0.086;2023-02-02T12:49:50;101356.95;;;7.14;72.94
57885;BME280;43703;51.060;-0.086;2023-02-02T12:52:13;101353.83;;;7.37;70.29
57885;BME280;43703;51.060;-0.086;2023-02-02T12:54:39;101352.12;;;6.86;71.99
57885;BME280;43703;51.060;-0.086;2023-02-02T12:56:57;101353.64;;;7.55;70.82
57885;BME280;43703;51.060;-0.086;2023-02-02T12:59:27;101350.06;;;6.97;71.62